Skip Navigation Links www.nws.noaa.gov 
NOAA logo - Click to go to the NOAA homepage National Weather Service   NWS logo - Click to go to the NWS homepage
NCEP Central Operations
Search 
   

Local forecast by
"City, St"

Search NCO
NCEP Home > NCEP Central Operations > Data Management and Quality Assessment Branch > Quality Assessment Project > Raob Data Manual Quality Control Reports > Mexican Raob Data Manual Quality Control Reports

Latest Mexican Raob Data Manual Quality Control Report Printer image icon. Printer Friendly Version

Latest Mexican Raob Data Manual Quality Control Report

Previous Mexican Raob Data Manual Quality Control Reports


                RAOB DATA MANUAL QUALITY CONTROL (QC) REPORT
                                  MEXICAN
                       From 20170901 through 20170930

 ___DATE___ HOUR REASN DETAILS...

76225/CUU
   20170928  00Z DELET Purged temps/moisture 619-584mb...wet bulb effect

1 record found

76256/GYM
   20170911  12Z 10158 10158; Flight equip problems..

1 record found

76394/MTY
   20170916  12Z DELET Purged temps/moisture 851-819 mb...wet bulb effect

1 record found

76405/LAP
   20170904  00Z 10158 10158
   20170905  00Z 10158 10158; Flight equip problems..
   20170906  12Z 10146 10146...Low maximum altitude
   20170907  00Z 10158 10158; Flight equip problems..
   20170908  00Z 10158 10158...Flight equipment failure
   20170909  00Z 10158 10158
   20170910  00Z 10158 10158.
   20170911  00Z 10158 10158.
   20170912  00Z 10158 Flight equipment failure...10158
   20170913  00Z 10158 10158
   20170914  00Z 10158 10158
   20170915  00Z 10158 10158; Flight equip problem..
   20170916  00Z 10158 10158; Flight equip problem..
   20170917  00Z 10158 10158
   20170918  00Z 10142 10142
   20170924  00Z 10158 10158
   20170926  00Z 10158 10158
   20170927  00Z 10150 10150
   20170928  00Z 10158 10158
   20170929  00Z 10158 10158.
   20170930  00Z 10158 10158.

21 records found

76458/MZT
   20170901  00Z 10159 10159
   20170901  12Z 10159 10159.
   20170902  00Z 10159 10159
   20170905  00Z 10159 10159; Not available..
   20170906  00Z 10159 10159; Not available..
   20170907  00Z 10159 10159; Not available..
   20170908  00Z 10159 10159...Unavailable
   20170909  00Z 10159 10159
   20170910  00Z 10159 10159
   20170910  12Z DELET Purged temps/moisture 511-491mb...wet bulb effect
   20170911  00Z 10159 10159.
   20170911  12Z 10158 10158; Flight equip problems..
   20170912  00Z 10158 Flight equipment failure...10158
   20170912  12Z 10158 10158...Flight equipment failure
   20170913  00Z 10159 10159
   20170914  00Z 10159 10159
   20170914  12Z 10158 10158...Flight equipment failure
   20170915  12Z 10158 10158...Flight equipment failure
   20170916  12Z 10158 10158...Flight equipment failure
   20170917  12Z 10158 10158...Flight equipment failure
   20170918  12Z 10158 10158...Flight equipment failure.
   20170919  12Z 10158 10158...Flight equipment failure.
   20170920  12Z 10158 10158...Flight equipment failure.
   20170921  12Z 10158 10158; Flight equip problems..
   20170922  12Z 10158 10158; Flight equip problem..
   20170923  12Z 10158 10158; Flight equip problem..
   20170924  12Z 10158 10158; Flight equip problems..
   20170925  12Z 10158 10158; FLIGHT EQUIP PROBLEM.
   20170926  12Z 10158 10158; FLIGHT EQUIP PROBLEM.
   20170927  12Z 10158 10158; FLIGHT EQUIP PROBLEM.
   20170928  12Z 10158 10158
   20170929  12Z 10158 10158
   20170930  00Z 10158 10158.
   20170930  12Z 10158 10158

34 records found

76595/CUN
   20170912  00Z DELET Purged temps 561-475 mb...wet bulb effect

1 record found

76612/GDL
   20170926  12Z 10142 10142;

1 record found

76644/MID
   20170903  12Z 10142 10142.
   20170919  12Z 10142 10142...Ground equipment failure.

2 records found

76654/MZL
   20170901  12Z 10158 10158.
   20170902  12Z 10158 10158.
   20170903  12Z 10158 10158.
   20170904  00Z 10158 10158
   20170904  12Z 10158 10158...Flight equipment failure
   20170905  00Z 10158 10158; Flight equip problem..
   20170905  12Z 10158 10158...Flight equipment failure
   20170906  00Z 10159 10159; Not available..
   20170907  12Z 10158 10158
   20170908  00Z 10158 10158...Flight equipment failure
   20170908  12Z 10158 10158
   20170909  12Z 10158 10158
   20170910  12Z 10158 10158.
   20170911  00Z 10158 10158
   20170911  12Z 10158 10158; Flight equip problems..
   20170912  00Z 10158 Flight equipment failure...10158
   20170912  12Z 10158 10158...Flight equipment failure
   20170914  00Z 10158 10158
   20170914  12Z 10158 10158...Flight equipment failure
   20170915  00Z 10158 10158; Flight equip problem..
   20170915  12Z 10158 10158...Flight equipment failure
   20170917  12Z 10158 10158...Flight equipment failure
   20170918  00Z 10158 10158
   20170918  12Z 10158 10158...Flight equipment failure.
   20170919  00Z 10158 10158
   20170919  12Z 10158 10158...Flight equipment failure.
   20170920  12Z 10158 10158...Flight equipment failure.
   20170921  00Z 10158 10158
   20170921  12Z 10158 10158; Flight equip problems..
   20170922  00Z 10158 10158
   20170922  12Z 10158 10158; Flight equip problem..
   20170923  00Z 10158 10158
   20170924  00Z 10158 10158
   20170924  12Z 10158 10158; Flight equip problems..
   20170925  00Z 10158 10158...Flight equipment failure
   20170925  12Z 10158 10158; FLIGHT EQUIP PROBLEM.
   20170926  00Z 10158 10158
   20170926  12Z 10158 10158; FLIGHT EQUIP PROBLEM.
   20170927  00Z 10158 10158
   20170927  12Z 10158 10158; FLIGHT EQUIP PROBLEM.
   20170928  00Z 10158 10158
   20170929  12Z 10142 10142
   20170930  00Z 10142 10142.

43 records found

76679/MEX
   20170909  12Z DELET Purged all hgts/temps
   20170928  12Z 10158 10158

2 records found

76692/HYY
   20170901  00Z 10158 10158
   20170902  00Z 10158 10158
   20170903  00Z 10158 10158
   20170907  00Z 10158 10158; Flight equip problems..
   20170908  00Z 10158 10158...Flight equipment failure
   20170909  12Z 10142 10142


   20170910  00Z 10158 10158.
   20170911  00Z 10158 10158.
   20170912  00Z 10158 Flight equipment failure...10158
   20170913  00Z 10158 10158
   20170914  00Z 10158 10158
   20170915  00Z 10158 10158; Flight equip problem..
   20170916  00Z 10158 10158; Flight equip problem..
   20170917  00Z 10158 10158
   20170918  00Z 10158 10158
   20170919  00Z 10158 10158
   20170920  00Z 10158 10158
   20170921  00Z 10158 10158
   20170922  00Z 10158 10158
   20170923  00Z 10158 10158
   20170923  12Z 10158 10158; Flight equip problem..
   20170924  00Z 10158 10158
   20170924  12Z 10158 10158; Flight equip problems..
   20170925  00Z 10158 10158...Flight equipment failure
   20170925  12Z 10158 10158; FLIGHT EQUIP PROBLEM.
   20170926  00Z 10158 10158
   20170926  12Z 10158 10158; FLIGHT EQUIP PROBLEM.
   20170927  00Z 10158 10158
   20170927  12Z 10158 10158; FLIGHT EQUIP PROBLEM.
   20170928  00Z 10158 10158
   20170928  12Z 10158 10158
   20170929  00Z 10158 10158.
   20170929  12Z 10158 10158
   20170930  00Z 10158 10158.
   20170930  12Z 10158 10158

35 records found

76805/ACA
   20170916  12Z SHORT Short to 486 mb
   20170921  12Z DELET Purge temps and humidity 1011 to 925 and 154mb 
                       up.. wet bulb effect..

2 records found

76903/TAP
   20170905  12Z DELET Purged temps/moisture 996-993 mb...super-adiabatic 
                       lapse rate
   20170919  00Z SHORT Short to 433 mb
   20170921  00Z SHORT Short to 617 mb
   20170922  00Z SHORT Short to 563 mb
   20170930  00Z SHORT Short to 452MB.

5 records found



SELECTED STATIONS WITH NO SDM QC:
  76526/ZAC  76743/VHA




This and related reports are available on the Web at . . .
http://www.nco.ncep.noaa.gov/sib/qap/raobqc/


  

NOAA/ National Weather Service
National Centers for Environmental Prediction
NCEP Central Operations
5830 University Research Court
College Park, MD 20740
NCO Web Team
Disclaimer Privacy Policy
Page last modified: Thursday, 16-Feb-2017 19:37:45 UTC